Time;durP1;ratioP1;P1;durP2;ratioP2;P2;SDS_P1;SDS_P2;PMS_P1;PMS_P2;Temp;Humidity;BMP_temperature;BMP_pressure;BME280_temperature;BME280_humidity;BME280_pressure;Samples;Min_cycle;Max_cycle;Signal;HPM_P1;HPM_P2
2022/05/14 00:01:36;;;;;;;9.10;2.60;;;12.20;99.90;;;;;;4963755;28;20035;-51
2022/05/14 00:04:03;;;;;;;12.23;3.30;;;12.10;99.90;;;;;;4964409;28;20310;-50
2022/05/14 00:06:30;;;;;;;10.30;3.00;;;12.10;99.90;;;;;;4963715;28;20046;-49
2022/05/14 00:08:56;;;;;;;6.70;2.90;;;12.10;99.90;;;;;;4965914;28;20499;-46
2022/05/14 00:14:07;;;;;;;9.25;3.05;;;12.00;99.90;;;;;;4951444;28;20058;-47
2022/05/14 00:16:35;;;;;;;8.75;2.90;;;12.00;99.90;;;;;;4966365;28;20081;-49
2022/05/14 00:19:02;;;;;;;9.50;3.05;;;12.00;99.90;;;;;;4966171;28;20034;-47
2022/05/14 00:21:28;;;;;;;10.93;2.83;;;11.80;99.90;;;;;;4966282;28;21368;-49
2022/05/14 00:23:54;;;;;;;7.78;2.80;;;12.00;99.90;;;;;;4967147;28;20078;-48
2022/05/14 00:26:21;;;;;;;9.48;3.05;;;12.00;99.90;;;;;;4967421;28;20098;-51
2022/05/14 00:28:47;;;;;;;10.15;3.13;;;12.10;99.90;;;;;;4966232;28;20035;-48
2022/05/14 00:31:13;;;;;;;9.70;2.92;;;12.10;99.90;;;;;;4967331;28;20509;-49
2022/05/14 00:33:39;;;;;;;10.32;2.75;;;12.00;99.90;;;;;;4967640;28;20055;-48
2022/05/14 00:36:05;;;;;;;10.35;3.28;;;12.00;99.90;;;;;;4954347;28;20039;-51
2022/05/14 00:38:33;;;;;;;9.73;2.90;;;12.00;99.90;;;;;;4965679;28;20503;-52
2022/05/14 00:41:04;;;;;;;8.85;2.60;;;12.00;99.90;;;;;;4966786;28;20089;-47
2022/05/14 00:43:31;;;;;;;8.90;2.95;;;12.10;99.90;;;;;;4966878;28;20042;-50
2022/05/14 00:46:09;;;;;;;9.23;3.15;;;12.10;99.90;;;;;;4966226;28;20043;-48
2022/05/14 00:48:39;;;;;;;13.40;3.58;;;12.00;99.90;;;;;;4964785;28;20063;-48
2022/05/14 00:51:07;;;;;;;13.32;2.95;;;12.10;99.90;;;;;;4966371;28;20117;-50
2022/05/14 00:53:39;;;;;;;11.70;3.35;;;12.00;99.90;;;;;;4963629;28;20121;-48
2022/05/14 00:56:11;;;;;;;10.35;3.15;;;12.00;99.90;;;;;;4967024;28;20031;-48
2022/05/14 00:58:54;;;;;;;13.23;3.17;;;12.00;99.90;;;;;;4964987;28;20049;-48
2022/05/14 01:01:20;;;;;;;14.20;3.38;;;12.10;99.90;;;;;;4964617;28;20057;-47
2022/05/14 01:03:47;;;;;;;11.93;3.00;;;12.10;99.90;;;;;;4948845;28;20510;-46
2022/05/14 01:06:17;;;;;;;12.80;3.33;;;12.00;99.90;;;;;;4967553;28;20082;-47
2022/05/14 01:08:43;;;;;;;15.20;3.63;;;12.00;99.90;;;;;;4966347;28;20039;-51
2022/05/14 01:11:11;;;;;;;13.32;3.30;;;11.90;99.90;;;;;;4965062;28;20595;-51
2022/05/14 01:13:37;;;;;;;15.05;4.10;;;11.90;99.90;;;;;;4965657;28;20055;-47
2022/05/14 01:16:04;;;;;;;12.90;3.63;;;11.90;99.90;;;;;;4965311;28;20245;-48
2022/05/14 01:18:32;;;;;;;14.27;4.07;;;11.80;99.90;;;;;;4966443;28;20037;-49
2022/05/14 01:21:12;;;;;;;15.07;4.32;;;11.90;99.90;;;;;;4966162;28;20399;-50
2022/05/14 01:26:36;;;;;;;12.45;3.95;;;11.70;99.90;;;;;;4965236;28;20053;-50
2022/05/14 01:29:12;;;;;;;13.70;3.92;;;11.70;99.90;;;;;;4949549;28;20046;-48
2022/05/14 01:31:38;;;;;;;13.18;3.63;;;11.70;99.90;;;;;;4966808;28;20607;-47
2022/05/14 01:34:10;;;;;;;17.42;4.22;;;11.70;99.90;;;;;;4966050;28;20437;-48
2022/05/14 01:36:38;;;;;;;13.75;3.95;;;11.60;99.90;;;;;;4967036;28;20126;-48
2022/05/14 01:39:05;;;;;;;10.93;4.32;;;11.60;99.90;;;;;;4965484;28;20031;-50
2022/05/14 01:41:31;;;;;;;15.63;4.70;;;11.50;99.90;;;;;;4963408;28;20039;-51
2022/05/14 01:43:57;;;;;;;18.13;4.63;;;11.50;99.90;;;;;;4964555;28;20050;-50
2022/05/14 01:46:23;;;;;;;12.05;4.13;;;11.50;99.90;;;;;;4965166;28;20035;-48
2022/05/14 01:48:49;;;;;;;15.10;4.47;;;11.50;99.90;;;;;;4965495;28;20150;-48
2022/05/14 01:51:15;;;;;;;15.05;4.47;;;11.50;99.90;;;;;;4965261;28;20035;-48
2022/05/14 01:53:41;;;;;;;15.07;4.70;;;11.50;99.90;;;;;;4964104;28;21256;-50
2022/05/14 01:56:07;;;;;;;19.52;4.75;;;11.40;99.90;;;;;;4964889;28;20383;-51
2022/05/14 01:58:38;;;;;;;13.30;4.30;;;11.30;99.90;;;;;;4946759;28;20035;-49
2022/05/14 02:01:24;;;;;;;13.50;4.75;;;11.30;99.90;;;;;;4964568;28;20527;-48
2022/05/14 02:03:56;;;;;;;14.57;4.72;;;11.30;99.90;;;;;;4966317;28;20091;-48
2022/05/14 02:06:23;;;;;;;16.58;5.07;;;11.30;99.90;;;;;;4947575;28;20039;-48
2022/05/14 02:08:48;;;;;;;17.70;4.65;;;11.40;99.90;;;;;;4963979;28;20057;-48
2022/05/14 02:11:14;;;;;;;16.27;4.97;;;11.40;99.90;;;;;;4964259;28;20035;-45
2022/05/14 02:13:41;;;;;;;15.02;4.78;;;11.40;99.90;;;;;;4964109;28;20050;-48
2022/05/14 02:16:08;;;;;;;18.13;4.97;;;11.40;99.90;;;;;;4964343;28;20034;-48
2022/05/14 02:18:35;;;;;;;20.23;4.90;;;11.40;99.90;;;;;;4964877;28;20049;-47
2022/05/14 02:21:02;;;;;;;17.20;5.05;;;11.30;99.90;;;;;;4963302;28;20035;-48
2022/05/14 02:23:27;;;;;;;16.40;5.35;;;11.40;99.90;;;;;;4965913;28;20053;-48
2022/05/14 02:25:54;;;;;;;19.30;5.13;;;11.40;99.90;;;;;;4964270;28;20035;-49
2022/05/14 02:28:20;;;;;;;16.17;4.90;;;11.50;99.90;;;;;;4964368;28;20110;-47
2022/05/14 02:30:46;;;;;;;14.73;4.78;;;11.40;99.90;;;;;;4962672;28;20023;-50
2022/05/14 02:33:12;;;;;;;18.50;5.38;;;11.40;99.90;;;;;;4965134;28;20336;-47
2022/05/14 02:35:38;;;;;;;18.38;5.38;;;11.50;99.90;;;;;;4963864;28;20061;-48
2022/05/14 02:38:04;;;;;;;18.92;5.35;;;11.40;99.90;;;;;;4964553;28;20031;-51
2022/05/14 02:40:30;;;;;;;14.85;5.63;;;11.40;99.90;;;;;;4963900;28;20113;-51
2022/05/14 02:42:56;;;;;;;14.07;5.10;;;11.30;99.90;;;;;;4964673;28;20042;-48
2022/05/14 02:45:22;;;;;;;13.68;6.00;;;11.20;99.90;;;;;;4963675;28;20031;-46
2022/05/14 02:47:50;;;;;;;20.67;5.57;;;11.20;99.90;;;;;;4964955;28;20462;-50
2022/05/14 02:50:17;;;;;;;16.73;5.82;;;11.20;99.90;;;;;;4963760;28;20498;-47
2022/05/14 02:52:43;;;;;;;19.83;5.90;;;11.20;99.90;;;;;;4963258;28;20053;-49
2022/05/14 02:55:09;;;;;;;18.42;5.78;;;11.10;99.90;;;;;;4964202;28;20672;-49
2022/05/14 02:57:35;;;;;;;18.17;5.45;;;11.00;99.90;;;;;;4963753;28;20035;-50
2022/05/14 03:00:04;;;;;;;20.48;6.40;;;11.00;99.90;;;;;;4964213;28;20039;-50
2022/05/14 03:02:29;;;;;;;19.75;5.60;;;11.00;99.90;;;;;;4962900;28;20034;-46
2022/05/14 03:04:55;;;;;;;16.30;7.05;;;10.90;99.90;;;;;;4963256;28;20513;-50
2022/05/14 03:07:20;;;;;;;21.70;6.22;;;10.90;99.90;;;;;;4964047;28;20513;-47
2022/05/14 03:09:46;;;;;;;19.92;6.35;;;10.90;99.90;;;;;;4963945;28;20495;-52
2022/05/14 03:12:14;;;;;;;19.55;6.85;;;10.70;99.90;;;;;;4964852;28;20057;-49
2022/05/14 03:14:40;;;;;;;17.50;6.40;;;10.70;99.90;;;;;;4963700;28;20376;-50
2022/05/14 03:17:06;;;;;;;23.25;6.60;;;10.70;99.90;;;;;;4947427;28;20035;-50
2022/05/14 03:19:32;;;;;;;17.65;6.63;;;10.60;99.90;;;;;;4964203;28;20038;-46
2022/05/14 03:21:59;;;;;;;17.60;6.75;;;10.60;99.90;;;;;;4964170;28;20486;-49
2022/05/14 03:24:25;;;;;;;17.05;5.90;;;10.50;99.90;;;;;;4965112;28;20062;-46
2022/05/14 03:26:50;;;;;;;18.48;6.75;;;10.50;99.90;;;;;;4963373;28;20093;-49
2022/05/14 03:29:17;;;;;;;14.32;6.10;;;10.50;99.90;;;;;;4962563;28;20406;-50
2022/05/14 03:31:43;;;;;;;24.25;7.53;;;10.40;99.90;;;;;;4963175;28;20100;-49
2022/05/14 03:34:11;;;;;;;17.38;7.43;;;10.30;99.90;;;;;;4965360;28;20039;-49
2022/05/14 03:36:39;;;;;;;17.70;7.10;;;10.30;99.90;;;;;;4964497;28;20038;-49
2022/05/14 03:39:04;;;;;;;17.77;6.82;;;10.40;99.90;;;;;;4946410;28;20126;-50
2022/05/14 03:41:30;;;;;;;18.85;6.95;;;10.40;99.90;;;;;;4964418;28;20558;-48
2022/05/14 03:43:57;;;;;;;15.38;6.22;;;10.30;99.90;;;;;;4965488;28;20047;-49
2022/05/14 03:46:22;;;;;;;19.13;6.80;;;10.30;99.90;;;;;;4967438;28;20046;-46
2022/05/14 03:48:48;;;;;;;16.70;7.13;;;10.20;99.90;;;;;;4966878;28;20051;-48
2022/05/14 03:51:14;;;;;;;17.85;6.78;;;10.30;99.90;;;;;;4967102;28;20042;-47
2022/05/14 03:53:40;;;;;;;15.50;6.30;;;10.20;99.90;;;;;;4968348;28;20054;-47
2022/05/14 03:56:06;;;;;;;16.77;6.78;;;10.20;99.90;;;;;;4967485;28;20055;-49
2022/05/14 03:58:32;;;;;;;21.08;7.03;;;10.20;99.90;;;;;;4966720;28;20042;-49
2022/05/14 04:00:58;;;;;;;18.30;6.93;;;10.10;99.90;;;;;;4968436;28;20038;-51
2022/05/14 04:03:25;;;;;;;23.45;7.32;;;10.20;99.90;;;;;;4950172;28;20457;-48
2022/05/14 04:05:51;;;;;;;20.40;7.53;;;10.10;99.90;;;;;;4950951;28;21545;-48
2022/05/14 04:08:17;;;;;;;16.75;6.93;;;10.10;99.90;;;;;;4966301;28;20042;-48
2022/05/14 04:10:44;;;;;;;15.45;6.72;;;10.10;99.90;;;;;;4968336;28;20049;-50
2022/05/14 04:13:11;;;;;;;14.35;7.13;;;10.10;99.90;;;;;;4967180;28;20117;-49
2022/05/14 04:15:37;;;;;;;23.45;7.18;;;10.10;99.90;;;;;;4966111;28;20064;-49
2022/05/14 04:18:03;;;;;;;16.90;6.43;;;10.10;99.90;;;;;;4965183;28;20039;-48
2022/05/14 04:20:29;;;;;;;21.38;7.57;;;10.10;99.90;;;;;;4966998;28;20046;-49
2022/05/14 04:22:56;;;;;;;18.13;6.90;;;10.00;99.90;;;;;;4967860;28;20487;-49
2022/05/14 04:25:23;;;;;;;19.50;7.85;;;10.00;99.90;;;;;;4966335;28;20035;-48
2022/05/14 04:27:49;;;;;;;18.80;7.43;;;9.90;99.90;;;;;;4964697;28;20368;-47
2022/05/14 04:30:16;;;;;;;17.88;7.00;;;9.90;99.90;;;;;;4948668;28;20050;-48
2022/05/14 04:32:42;;;;;;;20.50;6.45;;;9.90;99.90;;;;;;4967425;28;20038;-48
2022/05/14 04:35:09;;;;;;;17.10;7.22;;;9.90;99.90;;;;;;4966751;28;20130;-47
2022/05/14 04:37:35;;;;;;;18.35;6.93;;;9.80;99.90;;;;;;4966193;28;20023;-49
2022/05/14 04:40:00;;;;;;;18.05;6.50;;;10.00;99.90;;;;;;4966603;28;20106;-49
2022/05/14 04:42:26;;;;;;;17.92;7.05;;;10.00;99.90;;;;;;4967660;28;20483;-51
2022/05/14 04:44:52;;;;;;;22.77;7.85;;;10.00;99.90;;;;;;4965676;28;20043;-46
2022/05/14 04:47:18;;;;;;;18.65;7.70;;;10.10;99.90;;;;;;4966096;28;20042;-50
2022/05/14 04:49:46;;;;;;;16.27;7.20;;;10.10;99.90;;;;;;4965808;28;20066;-50
2022/05/14 04:52:12;;;;;;;18.38;7.65;;;10.10;99.90;;;;;;4964084;28;20506;-50
2022/05/14 04:54:39;;;;;;;18.70;6.65;;;10.00;99.90;;;;;;4965335;28;20070;-50
2022/05/14 04:57:05;;;;;;;17.92;7.47;;;10.00;99.90;;;;;;4954483;28;20483;-47
2022/05/14 04:59:32;;;;;;;14.18;6.90;;;10.00;99.90;;;;;;4966901;28;20101;-49
2022/05/14 05:04:44;;;;;;;24.15;7.38;;;10.00;99.90;;;;;;4966202;28;20177;-48
2022/05/14 05:07:11;;;;;;;14.82;7.45;;;10.20;99.90;;;;;;4965691;28;20126;-46
2022/05/14 05:09:37;;;;;;;16.60;6.85;;;10.10;99.90;;;;;;4965945;28;20045;-49
2022/05/14 05:12:03;;;;;;;19.45;7.68;;;10.20;99.90;;;;;;4968868;28;20454;-47
2022/05/14 05:14:29;;;;;;;16.90;6.93;;;10.20;99.90;;;;;;4947422;28;20046;-51
2022/05/14 05:16:54;;;;;;;20.55;7.57;;;10.30;99.90;;;;;;4967001;28;20037;-48
2022/05/14 05:19:20;;;;;;;15.93;6.70;;;10.30;99.90;;;;;;4966401;28;20067;-47
2022/05/14 05:21:47;;;;;;;19.55;7.25;;;10.30;99.90;;;;;;4965735;28;20042;-49
2022/05/14 05:24:13;;;;;;;19.25;7.63;;;10.40;99.90;;;;;;4966050;28;20073;-46
2022/05/14 05:26:39;;;;;;;20.70;7.78;;;10.40;99.90;;;;;;4965060;28;20066;-47
2022/05/14 05:29:05;;;;;;;22.83;8.25;;;10.50;99.90;;;;;;4947777;28;20092;-48
2022/05/14 05:31:33;;;;;;;25.23;8.70;;;10.50;99.90;;;;;;4965332;28;20086;-48
2022/05/14 05:33:59;;;;;;;22.58;8.45;;;10.50;99.90;;;;;;4965515;28;20035;-50
2022/05/14 05:36:25;;;;;;;25.27;8.90;;;10.60;99.90;;;;;;4966917;28;20052;-50
2022/05/14 05:38:51;;;;;;;21.67;8.95;;;10.70;99.90;;;;;;4964985;28;20090;-49
2022/05/14 05:41:18;;;;;;;24.95;8.77;;;10.80;99.90;;;;;;4965853;28;20391;-47
2022/05/14 05:43:45;;;;;;;28.00;9.82;;;10.90;99.90;;;;;;4966886;28;20053;-49
2022/05/14 05:46:14;;;;;;;29.00;9.68;;;10.90;99.90;;;;;;4963032;28;20086;-49
2022/05/14 05:48:41;;;;;;;25.20;9.85;;;11.10;99.90;;;;;;4963653;28;20054;-47
2022/05/14 05:51:07;;;;;;;26.75;10.20;;;11.20;99.90;;;;;;4966879;28;20046;-47
2022/05/14 05:59:03;;;;;;;23.88;9.95;;;11.40;99.90;;;;;;4965371;28;20489;-47
2022/05/14 06:01:28;;;;;;;26.73;9.93;;;11.40;99.90;;;;;;4947747;28;20053;-48
2022/05/14 06:03:54;;;;;;;28.55;11.07;;;11.50;99.90;;;;;;4964601;28;20043;-51
2022/05/14 06:06:20;;;;;;;24.67;10.98;;;11.60;99.90;;;;;;4963913;28;20509;-50
2022/05/14 06:08:50;;;;;;;29.73;11.45;;;11.60;99.90;;;;;;4966006;28;20498;-49
2022/05/14 06:11:17;;;;;;;28.48;11.85;;;11.70;99.90;;;;;;4964022;28;20035;-47
2022/05/14 06:13:43;;;;;;;25.80;11.60;;;11.70;99.90;;;;;;4963837;28;20046;-48
2022/05/14 06:16:15;;;;;;;30.33;11.80;;;11.90;99.90;;;;;;4964020;28;20494;-47
2022/05/14 06:18:44;;;;;;;35.20;12.52;;;12.00;99.90;;;;;;4964419;28;20034;-46
2022/05/14 06:21:11;;;;;;;32.83;11.77;;;12.10;99.90;;;;;;4963137;28;20840;-46
2022/05/14 06:23:37;;;;;;;29.23;11.82;;;12.10;99.90;;;;;;4962330;28;20042;-49
2022/05/14 06:26:03;;;;;;;27.30;10.95;;;12.20;99.90;;;;;;4964646;28;20030;-50
2022/05/14 06:28:29;;;;;;;25.25;11.50;;;12.30;99.90;;;;;;4964479;28;20035;-47
2022/05/14 06:30:56;;;;;;;35.47;12.88;;;12.40;99.90;;;;;;4964649;28;20126;-49
2022/05/14 06:33:22;;;;;;;32.30;11.48;;;12.60;99.90;;;;;;4963933;28;20043;-49
2022/05/14 06:35:48;;;;;;;34.30;12.77;;;12.60;99.90;;;;;;4965958;28;20037;-47
2022/05/14 06:38:14;;;;;;;38.20;13.43;;;12.80;99.90;;;;;;4963942;28;20425;-50
2022/05/14 06:40:41;;;;;;;47.78;13.57;;;12.80;99.90;;;;;;4962680;28;20046;-48
2022/05/14 06:43:08;;;;;;;41.35;13.23;;;13.00;99.90;;;;;;4963585;28;20045;-49
2022/05/14 06:45:34;;;;;;;36.22;12.88;;;13.10;99.90;;;;;;4964970;28;20476;-51
2022/05/14 06:48:00;;;;;;;30.27;11.13;;;13.10;99.90;;;;;;4964539;28;20103;-51
2022/05/14 06:50:28;;;;;;;38.83;12.73;;;13.30;99.90;;;;;;4964017;28;20257;-50
2022/05/14 06:52:59;;;;;;;37.67;12.32;;;13.30;99.90;;;;;;4964218;28;20137;-48
2022/05/14 06:55:28;;;;;;;36.17;12.05;;;13.40;99.90;;;;;;4961943;28;20050;-50
2022/05/14 06:57:54;;;;;;;41.33;11.88;;;13.50;99.90;;;;;;4965874;28;20038;-49
2022/05/14 07:00:21;;;;;;;34.90;11.88;;;13.50;99.90;;;;;;4963390;28;20494;-47
2022/05/14 07:02:48;;;;;;;29.70;10.68;;;13.70;99.90;;;;;;4964298;28;20030;-50
2022/05/14 07:07:59;;;;;;;36.63;10.23;;;13.90;99.90;;;;;;4961975;28;20447;-46
2022/05/14 07:10:25;;;;;;;35.20;10.35;;;14.00;99.90;;;;;;4961655;28;20126;-49
2022/05/14 07:12:51;;;;;;;30.02;9.60;;;14.10;99.90;;;;;;4960853;28;20073;-51
2022/05/14 07:15:17;;;;;;;26.75;8.55;;;14.20;99.90;;;;;;4966295;28;20051;-46
2022/05/14 07:17:43;;;;;;;31.40;9.40;;;14.10;99.90;;;;;;4964441;28;20042;-49
2022/05/14 07:20:10;;;;;;;26.00;9.23;;;14.30;99.90;;;;;;4949815;28;20505;-49
2022/05/14 07:22:36;;;;;;;33.60;9.02;;;14.30;99.90;;;;;;4943734;28;20130;-52
2022/05/14 07:25:02;;;;;;;31.67;9.23;;;14.50;99.90;;;;;;4962765;28;22870;-50
2022/05/14 07:27:28;;;;;;;30.33;8.68;;;14.50;99.90;;;;;;4959601;28;20652;-48
2022/05/14 07:29:54;;;;;;;36.40;11.40;;;14.50;99.90;;;;;;4961952;28;20042;-47
2022/05/14 07:32:20;;;;;;;30.75;10.60;;;14.50;99.90;;;;;;4962770;28;20046;-48
2022/05/14 07:34:46;;;;;;;32.67;10.48;;;14.60;99.90;;;;;;4961388;28;20046;-50
2022/05/14 07:37:16;;;;;;;35.38;10.90;;;14.70;99.90;;;;;;4961849;28;20085;-50
2022/05/14 07:40:06;;;;;;;33.70;9.73;;;14.70;99.90;;;;;;4963167;28;20047;-49
2022/05/14 07:42:39;;;;;;;30.10;8.98;;;14.80;99.90;;;;;;4961788;28;20038;-49
2022/05/14 07:45:08;;;;;;;30.10;9.70;;;14.80;99.90;;;;;;4962939;28;20046;-52
2022/05/14 07:47:35;;;;;;;27.10;7.57;;;15.00;99.90;;;;;;4945283;28;20034;-50
2022/05/14 07:50:02;;;;;;;27.00;8.30;;;15.00;99.90;;;;;;4960873;28;20109;-53
2022/05/14 07:52:29;;;;;;;30.90;7.20;;;15.10;99.90;;;;;;4962509;28;20051;-50
2022/05/14 07:54:55;;;;;;;24.52;5.30;;;15.20;99.90;;;;;;4950440;28;20079;-50
2022/05/14 07:57:21;;;;;;;21.67;5.80;;;15.30;99.90;;;;;;4968834;28;20439;-49
2022/05/14 07:59:46;;;;;;;24.83;5.10;;;15.30;99.90;;;;;;4951233;28;20049;-48
2022/05/14 08:02:22;;;;;;;26.75;5.03;;;15.30;99.90;;;;;;4967385;28;20318;-53
2022/05/14 08:04:48;;;;;;;19.65;4.10;;;15.40;99.90;;;;;;4968159;28;20053;-50
2022/05/14 08:07:14;;;;;;;22.00;4.30;;;15.50;99.90;;;;;;4970333;28;20046;-51
2022/05/14 08:09:40;;;;;;;19.75;4.00;;;15.50;99.90;;;;;;4970272;28;20402;-50
2022/05/14 08:12:06;;;;;;;26.60;4.47;;;15.60;99.90;;;;;;4969171;28;20042;-48
2022/05/14 08:14:33;;;;;;;19.63;4.38;;;15.70;99.90;;;;;;4968658;28;20058;-52
2022/05/14 08:16:59;;;;;;;22.52;4.70;;;15.80;99.90;;;;;;4951747;28;20050;-52
2022/05/14 08:19:26;;;;;;;26.13;6.50;;;15.90;99.90;;;;;;4941282;28;20039;-52
2022/05/14 08:24:38;;;;;;;26.45;6.57;;;16.20;99.90;;;;;;4971393;28;20711;-49
2022/05/14 08:27:08;;;;;;;21.88;5.28;;;16.20;99.90;;;;;;4969168;28;20074;-48
2022/05/14 08:29:34;;;;;;;25.05;6.50;;;16.20;99.90;;;;;;4972340;28;20031;-51
2022/05/14 08:32:00;;;;;;;24.83;6.68;;;16.40;99.90;;;;;;4973545;28;20038;-48
2022/05/14 08:34:26;;;;;;;28.10;6.55;;;16.50;99.90;;;;;;4973672;28;20030;-51
2022/05/14 08:36:52;;;;;;;21.98;5.55;;;16.70;99.90;;;;;;4973592;28;20042;-49
2022/05/14 08:39:18;;;;;;;21.83;5.07;;;16.80;99.90;;;;;;4971451;28;20053;-49
2022/05/14 08:41:47;;;;;;;24.33;5.10;;;16.80;99.90;;;;;;4955861;28;20391;-54
2022/05/14 08:44:24;;;;;;;24.15;5.05;;;16.70;99.90;;;;;;4973114;28;20105;-51
2022/05/14 08:46:57;;;;;;;23.67;5.35;;;16.60;99.90;;;;;;4971112;28;20443;-51
2022/05/14 08:49:46;;;;;;;24.00;5.63;;;16.50;99.90;;;;;;4973524;28;20057;-50
2022/05/14 08:52:22;;;;;;;24.25;5.43;;;16.40;99.90;;;;;;4974225;28;20038;-50
2022/05/14 08:55:00;;;;;;;26.10;5.45;;;16.30;99.90;;;;;;4974700;28;20046;-51
2022/05/14 08:57:49;;;;;;;19.85;4.38;;;16.30;99.90;;;;;;4974404;28;20043;-53
2022/05/14 09:00:15;;;;;;;20.13;5.00;;;16.20;99.90;;;;;;4973081;28;20099;-50
2022/05/14 09:02:45;;;;;;;22.13;4.85;;;16.40;99.90;;;;;;4972056;28;20039;-52
2022/05/14 09:05:21;;;;;;;24.50;5.00;;;16.80;99.90;;;;;;4974174;28;20042;-52
2022/05/14 09:07:50;;;;;;;18.70;4.70;;;16.90;99.90;;;;;;4973495;28;20035;-48
2022/05/14 09:10:30;;;;;;;22.88;4.72;;;17.20;99.90;;;;;;4973917;28;20517;-50
2022/05/14 09:13:21;;;;;;;19.40;4.72;;;17.20;99.90;;;;;;4973681;28;20042;-51
2022/05/14 09:15:48;;;;;;;21.05;4.35;;;17.10;99.90;;;;;;4973385;28;20535;-51
2022/05/14 09:18:44;;;;;;;19.08;4.63;;;16.70;99.90;;;;;;4953633;28;20038;-50
2022/05/14 09:21:21;;;;;;;19.65;4.30;;;17.10;99.90;;;;;;4971501;28;20049;-50
2022/05/14 09:23:55;;;;;;;20.67;4.07;;;17.60;99.90;;;;;;4970495;28;20043;-49
2022/05/14 09:26:41;;;;;;;20.92;4.63;;;17.90;99.90;;;;;;4972606;28;20102;-50
2022/05/14 09:29:32;;;;;;;23.13;5.00;;;17.60;99.90;;;;;;4973604;28;20414;-48
2022/05/14 09:32:04;;;;;;;20.77;5.05;;;17.90;99.90;;;;;;4970542;28;20055;-49
2022/05/14 09:34:32;;;;;;;19.35;4.22;;;18.20;99.90;;;;;;4971015;28;20039;-51
2022/05/14 09:37:13;;;;;;;18.27;3.58;;;18.40;99.90;;;;;;4969367;28;20142;-48
2022/05/14 09:39:40;;;;;;;29.55;4.85;;;18.80;99.90;;;;;;4973000;28;20066;-51
2022/05/14 09:42:21;;;;;;;25.17;4.63;;;18.50;99.90;;;;;;4972237;28;20042;-52
2022/05/14 09:44:50;;;;;;;22.88;4.57;;;18.60;99.90;;;;;;4973289;28;20039;-50
2022/05/14 09:47:30;;;;;;;24.30;4.53;;;18.70;99.90;;;;;;4973164;28;20097;-52
2022/05/14 09:49:56;;;;;;;19.90;4.13;;;18.40;99.90;;;;;;4972716;28;20058;-50
2022/05/14 09:52:32;;;;;;;22.25;4.20;;;18.60;99.90;;;;;;4973199;28;20047;-49
2022/05/14 09:54:59;;;;;;;23.50;4.15;;;18.20;99.90;;;;;;4973027;28;20049;-50
2022/05/14 09:57:42;;;;;;;21.08;3.67;;;18.40;99.90;;;;;;4973508;28;20410;-52
2022/05/14 10:00:17;;;;;;;24.43;5.00;;;18.60;99.90;;;;;;4973168;28;20035;-50
2022/05/14 10:02:51;;;;;;;18.35;3.92;;;18.70;99.90;;;;;;4973259;28;20281;-50
2022/05/14 10:05:23;;;;;;;22.98;4.25;;;19.00;99.90;;;;;;4972939;28;20070;-50
2022/05/14 10:08:27;;;;;;;18.30;4.05;;;19.40;99.90;;;;;;4971615;28;20054;-50
2022/05/14 10:11:08;;;;;;;20.17;3.80;;;19.30;99.90;;;;;;4959202;28;20085;-52
2022/05/14 10:14:02;;;;;;;20.98;4.22;;;19.70;99.90;;;;;;4969763;28;20514;-50
2022/05/14 10:16:32;;;;;;;16.00;3.53;;;19.40;99.90;;;;;;4971059;28;20027;-51
2022/05/14 10:19:07;;;;;;;17.23;3.58;;;19.20;99.90;;;;;;4970061;28;20475;-48
2022/05/14 10:21:54;;;;;;;17.85;3.85;;;19.00;99.90;;;;;;4970749;28;20378;-49
2022/05/14 10:27:41;;;;;;;18.02;3.42;;;19.30;99.90;;;;;;4972576;28;20053;-48
2022/05/14 10:30:22;;;;;;;17.70;3.72;;;19.40;99.90;;;;;;4972523;28;20049;-51
2022/05/14 10:33:02;;;;;;;17.40;3.90;;;19.40;99.90;;;;;;4972104;28;20121;-48
2022/05/14 10:35:47;;;;;;;16.10;3.25;;;19.50;99.90;;;;;;4972257;28;20446;-48
2022/05/14 10:38:27;;;;;;;;;;;19.40;99.70;;;;;;4973371;28;20035;-51
2022/05/14 10:40:59;;;;;;;18.10;3.33;;;19.40;99.30;;;;;;4971580;28;19921;-48
2022/05/14 10:43:43;;;;;;;17.33;3.42;;;19.70;99.90;;;;;;4972234;28;20030;-50
2022/05/14 10:46:11;;;;;;;17.90;3.78;;;20.10;99.90;;;;;;4972518;28;20039;-52
2022/05/14 10:48:41;;;;;;;23.38;4.07;;;20.10;99.90;;;;;;4972547;28;20453;-49
2022/05/14 10:51:11;;;;;;;18.05;3.53;;;20.20;99.80;;;;;;4971529;28;20055;-50
2022/05/14 10:53:42;;;;;;;29.35;4.13;;;20.00;99.70;;;;;;4968876;28;20059;-49
2022/05/14 10:56:13;;;;;;;16.85;3.88;;;20.20;99.50;;;;;;4937075;28;20134;-51
2022/05/14 10:58:56;;;;;;;16.05;3.58;;;20.00;99.30;;;;;;4970907;28;20046;-47
2022/05/14 11:01:33;;;;;;;16.98;3.83;;;19.90;98.60;;;;;;4971285;28;20117;-49
2022/05/14 11:04:14;;;;;;;21.70;4.00;;;20.10;99.10;;;;;;4971789;28;20061;-47
2022/05/14 11:07:07;;;;;;;19.67;4.10;;;20.30;99.20;;;;;;4954281;28;20051;-54
2022/05/14 11:09:45;;;;;;;16.92;3.42;;;20.30;97.10;;;;;;4969705;28;20043;-52
2022/05/14 11:12:19;;;;;;;16.92;4.05;;;20.40;97.90;;;;;;4971901;28;20045;-51
2022/05/14 11:14:53;;;;;;;22.67;4.40;;;20.70;99.00;;;;;;4971982;28;20364;-47
2022/05/14 11:17:25;;;;;;;14.18;3.38;;;20.80;97.90;;;;;;4972063;28;20113;-52
2022/05/14 11:20:08;;;;;;;19.85;3.72;;;21.20;98.80;;;;;;4971074;28;20038;-52
2022/05/14 11:22:37;;;;;;;19.23;4.20;;;20.70;96.80;;;;;;4971776;28;20031;-50
2022/05/14 11:25:21;;;;;;;17.58;3.53;;;20.80;97.20;;;;;;4971381;28;20398;-52
2022/05/14 11:27:59;;;;;;;16.05;3.90;;;20.90;96.60;;;;;;4971350;28;20482;-55
2022/05/14 11:30:46;;;;;;;26.05;4.50;;;20.70;96.40;;;;;;4971086;28;20149;-50
2022/05/14 11:33:20;;;;;;;15.35;3.78;;;21.20;96.90;;;;;;4972118;28;20042;-49
2022/05/14 11:35:48;;;;;;;19.55;3.75;;;20.90;96.00;;;;;;4969589;28;20466;-51
2022/05/14 11:38:26;;;;;;;19.35;4.13;;;21.00;96.50;;;;;;4971509;28;20411;-51
2022/05/14 11:41:09;;;;;;;19.90;4.03;;;21.50;96.20;;;;;;4971189;28;20038;-48
2022/05/14 11:43:39;;;;;;;14.32;3.55;;;21.40;96.00;;;;;;4971742;28;20122;-52
2022/05/14 11:46:26;;;;;;;18.73;3.92;;;21.70;96.20;;;;;;4970726;28;20053;-51
2022/05/14 11:49:06;;;;;;;19.50;4.10;;;21.60;94.20;;;;;;4969331;28;20113;-50
2022/05/14 11:51:58;;;;;;;12.18;3.50;;;21.60;94.90;;;;;;4971162;28;20093;-49
2022/05/14 11:54:53;;;;;;;14.05;3.63;;;21.60;94.20;;;;;;4969193;28;20360;-52
2022/05/14 11:57:31;;;;;;;20.58;4.82;;;21.60;94.30;;;;;;4950255;28;20123;-51
2022/05/14 12:00:13;;;;;;;20.30;3.80;;;22.00;94.50;;;;;;4971383;28;20031;-51
2022/05/14 12:02:49;;;;;;;20.23;4.05;;;22.10;95.00;;;;;;4971833;28;20038;-49
2022/05/14 12:05:25;;;;;;;15.27;3.33;;;21.90;94.00;;;;;;4973997;28;20114;-51
2022/05/14 12:08:09;;;;;;;17.45;3.75;;;22.40;93.70;;;;;;4974918;28;20050;-51
2022/05/14 12:10:49;;;;;;;18.40;4.15;;;22.40;93.60;;;;;;4971164;28;20118;-49
2022/05/14 12:13:33;;;;;;;17.75;3.90;;;22.40;92.80;;;;;;4974637;28;20038;-52
2022/05/14 12:16:00;;;;;;;19.58;4.28;;;22.70;93.30;;;;;;4974531;28;20123;-50
2022/05/14 12:18:28;;;;;;;16.48;3.70;;;22.50;93.00;;;;;;4957643;28;20074;-52
2022/05/14 12:20:59;;;;;;;18.33;3.95;;;22.10;91.90;;;;;;4974572;28;20054;-51
2022/05/14 12:23:43;;;;;;;15.23;3.72;;;22.40;93.10;;;;;;4975219;28;20123;-49
2022/05/14 12:26:24;;;;;;;16.08;3.85;;;22.50;92.60;;;;;;4974198;28;20030;-48
2022/05/14 12:28:52;;;;;;;17.35;3.65;;;22.80;93.00;;;;;;4973951;28;20450;-50
2022/05/14 12:34:13;;;;;;;21.02;4.43;;;22.50;91.80;;;;;;4972707;28;20109;-49
2022/05/14 12:36:51;;;;;;;16.33;3.30;;;22.60;91.80;;;;;;4973539;28;20039;-47
2022/05/14 12:39:22;;;;;;;17.88;3.63;;;23.00;92.30;;;;;;4971286;28;20038;-51
2022/05/14 12:41:53;;;;;;;15.40;4.03;;;22.70;90.40;;;;;;4972554;28;20085;-48
2022/05/14 12:44:29;;;;;;;16.60;3.72;;;22.80;90.60;;;;;;4972120;28;20047;-51
2022/05/14 12:46:59;;;;;;;16.48;3.40;;;22.70;91.10;;;;;;4962433;28;20039;-50
2022/05/14 12:49:33;;;;;;;17.00;3.70;;;22.60;90.30;;;;;;4972162;28;20051;-50
2022/05/14 12:52:04;;;;;;;;;;;22.80;89.40;;;;;;4970929;28;20042;-51
2022/05/14 12:54:33;;;;;;;12.55;3.17;;;22.40;88.00;;;;;;4971422;28;19981;-47
2022/05/14 12:57:05;;;;;;;18.55;3.80;;;22.50;90.50;;;;;;4972853;28;20042;-48
2022/05/14 12:59:31;;;;;;;15.52;3.88;;;23.00;90.50;;;;;;4974441;28;20038;-48
2022/05/14 13:02:02;;;;;;;14.38;3.50;;;23.40;89.50;;;;;;4973899;28;20034;-49
2022/05/14 13:04:40;;;;;;;16.17;3.78;;;23.00;89.40;;;;;;4974308;28;20077;-52
2022/05/14 13:07:08;;;;;;;15.55;3.70;;;23.20;88.60;;;;;;4972540;28;20047;-51
2022/05/14 13:09:36;;;;;;;14.32;3.47;;;22.80;88.60;;;;;;4972850;28;20039;-53
2022/05/14 13:12:02;;;;;;;19.55;3.85;;;23.20;89.70;;;;;;4973325;28;20047;-49
2022/05/14 13:14:34;;;;;;;12.05;3.00;;;23.50;89.30;;;;;;4972568;28;20039;-47
2022/05/14 13:17:06;;;;;;;15.55;3.97;;;23.50;88.90;;;;;;4973101;28;20066;-50
2022/05/14 13:19:40;;;;;;;16.92;3.50;;;23.90;88.60;;;;;;4973571;28;20038;-49